createdAt,value
2019-02-17T00:00:26.161Z,61.33
2019-02-17T00:02:56.463Z,57.63
2019-02-17T00:05:26.846Z,64.97
2019-02-17T00:07:57.442Z,62.73
2019-02-17T00:10:27.920Z,61.43
2019-02-17T00:12:58.522Z,78.30
2019-02-17T00:15:29.074Z,75.67
2019-02-17T00:17:59.354Z,67.47
2019-02-17T00:20:29.925Z,64.57
2019-02-17T00:23:00.363Z,61.53
2019-02-17T00:25:30.813Z,59.37
2019-02-17T00:28:01.142Z,63.30
2019-02-17T00:30:31.674Z,56.27
2019-02-17T00:33:02.063Z,50.10
2019-02-17T00:35:32.623Z,53.80
2019-02-17T00:38:02.822Z,59.77
2019-02-17T00:40:33.230Z,60.03
2019-02-17T00:43:03.646Z,58.87
2019-02-17T00:45:34.142Z,61.60
2019-02-17T00:48:04.446Z,68.33
2019-02-17T00:50:34.676Z,106.00
2019-02-17T00:53:05.066Z,72.20
2019-02-17T00:55:34.877Z,75.97
2019-02-17T00:58:05.570Z,92.00
2019-02-17T01:00:36.368Z,86.67
2019-02-17T01:03:06.950Z,111.23
2019-02-17T01:05:37.263Z,87.50
2019-02-17T01:08:07.962Z,80.37
2019-02-17T01:10:38.658Z,71.67
2019-02-17T01:13:08.944Z,60.87
2019-02-17T01:15:39.204Z,76.57
2019-02-17T01:18:09.482Z,74.37
2019-02-17T01:20:40.131Z,61.17
2019-02-17T01:23:10.473Z,56.47
2019-02-17T01:25:40.830Z,59.17
2019-02-17T01:28:11.070Z,65.97
2019-02-17T01:30:41.498Z,48.83
2019-02-17T01:33:11.845Z,46.27
2019-02-17T01:35:42.214Z,52.53
2019-02-17T01:38:11.940Z,50.20
2019-02-17T01:40:42.129Z,46.10
2019-02-17T01:43:12.647Z,39.77
2019-02-17T01:45:43.129Z,51.23
2019-02-17T01:48:13.511Z,47.37
2019-02-17T01:50:43.842Z,46.53
2019-02-17T01:53:14.075Z,44.03
2019-02-17T01:55:44.177Z,45.27
2019-02-17T01:58:14.658Z,51.50
2019-02-17T02:00:45.074Z,47.70
2019-02-17T02:03:15.474Z,42.83
2019-02-17T02:05:45.176Z,93.57
2019-02-17T02:08:15.986Z,90.50
2019-02-17T02:10:46.559Z,67.57
2019-02-17T02:13:17.178Z,58.40
2019-02-17T02:15:47.482Z,46.47
2019-02-17T02:18:17.999Z,43.27
2019-02-17T02:20:48.385Z,43.67
2019-02-17T02:23:18.836Z,34.47
2019-02-17T02:25:49.232Z,41.03
2019-02-17T02:28:19.906Z,35.73
2019-02-17T02:30:50.264Z,41.57
2019-02-17T02:33:20.575Z,43.27
2019-02-17T02:35:50.855Z,37.53
2019-02-17T02:38:21.118Z,39.03
2019-02-17T02:40:51.516Z,46.77
2019-02-17T02:43:21.987Z,42.53
2019-02-17T02:45:52.403Z,43.13
2019-02-17T02:48:22.787Z,40.67
2019-02-17T02:50:53.428Z,37.77
2019-02-17T02:53:23.618Z,32.70
2019-02-17T02:55:54.487Z,34.50
2019-02-17T02:58:24.849Z,39.67
2019-02-17T03:00:55.302Z,39.13
2019-02-17T03:03:25.546Z,31.87
2019-02-17T03:06:07.624Z,35.87
2019-02-17T03:08:37.950Z,32.07
2019-02-17T03:11:08.398Z,34.00
2019-02-17T03:13:38.757Z,39.67
2019-02-17T03:16:09.194Z,34.17
2019-02-17T03:18:39.603Z,40.87
2019-02-17T03:21:10.008Z,38.13
2019-02-17T03:23:40.263Z,42.17
2019-02-17T03:26:10.687Z,34.17
2019-02-17T03:28:41.115Z,56.90
2019-02-17T03:31:11.682Z,44.47
2019-02-17T03:33:42.219Z,40.23
2019-02-17T03:36:12.571Z,39.37
2019-02-17T03:38:42.874Z,33.53
2019-02-17T03:41:13.241Z,30.33
2019-02-17T03:43:43.790Z,32.87
2019-02-17T03:46:14.302Z,27.33
2019-02-17T03:48:44.526Z,33.40
2019-02-17T03:51:15.049Z,31.43
2019-02-17T03:53:45.468Z,25.70
2019-02-17T03:56:15.874Z,22.57
2019-02-17T03:58:46.178Z,19.13
2019-02-17T04:01:16.755Z,20.20
2019-02-17T04:03:46.508Z,18.00
2019-02-17T04:06:17.003Z,23.03
2019-02-17T04:08:47.438Z,15.17
2019-02-17T04:11:18.113Z,18.57
2019-02-17T04:13:48.367Z,14.60
2019-02-17T04:16:18.705Z,16.97
2019-02-17T04:18:49.009Z,15.27
2019-02-17T04:21:19.486Z,16.60
2019-02-17T04:23:49.824Z,19.07
2019-02-17T04:26:20.278Z,16.77
2019-02-17T04:28:50.645Z,17.17
2019-02-17T04:31:20.963Z,18.00
2019-02-17T04:33:51.688Z,15.57
2019-02-17T04:36:21.993Z,16.53
2019-02-17T04:38:52.446Z,27.90
2019-02-17T04:41:22.705Z,28.27
2019-02-17T04:43:53.330Z,35.07
2019-02-17T04:46:24.401Z,36.70
2019-02-17T04:48:54.743Z,31.60
2019-02-17T04:51:25.254Z,34.37
2019-02-17T04:53:55.756Z,29.93
2019-02-17T04:56:26.125Z,32.23
2019-02-17T04:58:56.418Z,38.90
2019-02-17T05:01:26.764Z,34.93
2019-02-17T05:03:57.054Z,42.30
2019-02-17T05:06:27.399Z,46.17
2019-02-17T05:08:57.990Z,42.13
2019-02-17T05:11:28.331Z,43.33
2019-02-17T05:13:58.712Z,37.97
2019-02-17T05:16:29.250Z,40.77
2019-02-17T05:18:59.610Z,39.60
2019-02-17T05:21:30.241Z,40.13
2019-02-17T05:24:00.673Z,41.87
2019-02-17T05:26:30.989Z,43.67
2019-02-17T05:29:01.394Z,61.10
2019-02-17T05:31:32.048Z,53.10
2019-02-17T05:34:02.548Z,54.97
2019-02-17T05:36:32.742Z,56.80
2019-02-17T05:39:03.100Z,58.60
2019-02-17T05:41:33.567Z,57.40
2019-02-17T05:44:04.034Z,52.07
2019-02-17T05:46:34.320Z,63.77
2019-02-17T05:49:04.686Z,61.10
2019-02-17T05:51:35.013Z,64.33
2019-02-17T05:54:05.559Z,63.90
2019-02-17T05:56:35.659Z,69.47
2019-02-17T05:59:06.033Z,68.30
2019-02-17T06:01:36.453Z,62.17
2019-02-17T06:04:06.845Z,63.57
2019-02-17T06:06:37.195Z,61.70
2019-02-17T06:09:07.666Z,60.90
2019-02-17T06:11:38.007Z,61.17
2019-02-17T06:14:08.241Z,66.87
2019-02-17T06:16:38.682Z,71.57
2019-02-17T06:19:09.169Z,65.83
2019-02-17T06:21:39.395Z,68.87
2019-02-17T06:24:09.626Z,73.93
2019-02-17T06:26:40.103Z,65.97
2019-02-17T06:29:10.599Z,59.67
2019-02-17T06:31:40.898Z,60.27
2019-02-17T06:34:11.374Z,64.37
2019-02-17T06:36:41.794Z,64.77
2019-02-17T06:39:12.073Z,63.87
2019-02-17T06:41:42.403Z,69.73
2019-02-17T06:44:12.715Z,74.33
2019-02-17T06:46:48.729Z,61.13
2019-02-17T06:49:19.213Z,58.63
2019-02-17T06:51:49.513Z,60.77
2019-02-17T06:54:19.974Z,61.67
2019-02-17T06:56:58.114Z,61.23
2019-02-17T06:59:28.615Z,63.00
2019-02-17T07:01:58.929Z,54.77
2019-02-17T07:04:33.310Z,69.93
2019-02-17T07:07:05.530Z,74.40
2019-02-17T07:09:35.979Z,121.70
2019-02-17T07:12:06.266Z,142.07
2019-02-17T07:14:38.363Z,181.97
2019-02-17T07:17:06.397Z,170.77
2019-02-17T07:19:35.944Z,121.07
2019-02-17T07:22:06.091Z,95.67
2019-02-17T07:24:36.403Z,102.40
2019-02-17T07:27:06.834Z,111.70
2019-02-17T07:29:37.219Z,122.33
2019-02-17T07:32:07.726Z,137.30
2019-02-17T07:34:38.095Z,150.20
2019-02-17T07:37:08.538Z,113.27
2019-02-17T07:39:38.974Z,99.93
2019-02-17T07:42:09.774Z,101.93
2019-02-17T07:44:40.553Z,106.03
2019-02-17T07:47:10.433Z,115.53
2019-02-17T07:49:41.142Z,116.20
2019-02-17T07:52:11.447Z,117.20
2019-02-17T07:54:41.754Z,192.93
2019-02-17T07:57:12.239Z,162.03
2019-02-17T07:59:42.637Z,143.47
2019-02-17T08:02:13.050Z,138.53
2019-02-17T08:04:43.361Z,119.00
2019-02-17T08:07:13.758Z,91.10
2019-02-17T08:09:44.085Z,69.87
2019-02-17T08:12:14.370Z,87.20
2019-02-17T08:14:44.714Z,66.00
2019-02-17T08:17:15.259Z,61.53
2019-02-17T08:19:45.517Z,60.77
2019-02-17T08:22:15.847Z,52.67
2019-02-17T08:24:46.589Z,54.93
2019-02-17T08:27:16.902Z,54.23
2019-02-17T08:29:47.210Z,54.63
2019-02-17T08:32:17.658Z,43.20
2019-02-17T08:34:47.866Z,39.87
2019-02-17T08:37:18.327Z,39.50
2019-02-17T08:39:49.010Z,30.60
2019-02-17T08:42:19.124Z,24.50
2019-02-17T08:44:49.403Z,34.63
2019-02-17T08:47:19.809Z,32.03
2019-02-17T08:49:49.542Z,36.03
2019-02-17T08:52:19.859Z,39.37
2019-02-17T08:54:50.137Z,42.47
2019-02-17T08:57:20.558Z,31.13
2019-02-17T08:59:50.913Z,32.37
2019-02-17T09:02:21.173Z,26.13
2019-02-17T09:04:51.445Z,22.80
2019-02-17T09:07:21.642Z,23.40
2019-02-17T09:09:51.885Z,23.53
2019-02-17T09:12:22.224Z,22.03
2019-02-17T09:14:52.654Z,26.87
2019-02-17T09:17:23.116Z,21.13
2019-02-17T09:19:53.357Z,24.70
2019-02-17T09:22:23.621Z,19.87
2019-02-17T09:24:53.958Z,24.90
2019-02-17T09:27:24.318Z,21.97
2019-02-17T09:29:54.574Z,22.27
2019-02-17T09:32:24.968Z,23.07
2019-02-17T09:34:55.186Z,23.03
2019-02-17T09:37:25.569Z,19.90
2019-02-17T09:39:55.969Z,22.40
2019-02-17T09:42:26.278Z,22.13
2019-02-17T09:44:56.601Z,20.43
2019-02-17T09:47:27.138Z,24.27
2019-02-17T09:49:57.441Z,21.63
2019-02-17T09:52:27.762Z,19.83
2019-02-17T09:54:58.131Z,24.47
2019-02-17T09:57:28.504Z,26.03
2019-02-17T09:59:58.808Z,25.10
2019-02-17T10:02:29.086Z,23.03
2019-02-17T10:04:59.554Z,24.53
2019-02-17T10:07:29.902Z,23.70
2019-02-17T10:10:00.221Z,26.43
2019-02-17T10:12:30.551Z,26.43
2019-02-17T10:15:00.818Z,30.90
2019-02-17T10:17:31.203Z,27.20
2019-02-17T10:20:01.426Z,25.70
2019-02-17T10:22:31.702Z,29.77
2019-02-17T10:25:02.422Z,25.90
2019-02-17T10:27:32.838Z,26.67
2019-02-17T10:30:03.127Z,26.50
2019-02-17T10:32:37.271Z,27.13
2019-02-17T10:35:04.302Z,36.67
2019-02-17T10:37:34.613Z,32.70
2019-02-17T10:40:05.149Z,26.70
2019-02-17T10:42:35.462Z,29.00
2019-02-17T10:45:06.005Z,28.93
2019-02-17T10:47:36.575Z,26.40
2019-02-17T10:50:07.209Z,27.23
2019-02-17T10:52:37.534Z,29.37
2019-02-17T10:55:08.169Z,26.63
2019-02-17T10:57:38.594Z,28.77
2019-02-17T11:00:12.572Z,25.00
2019-02-17T11:02:46.969Z,24.97
2019-02-17T11:05:13.750Z,25.47
2019-02-17T11:07:44.453Z,24.83
2019-02-17T11:10:14.852Z,22.97
2019-02-17T11:12:45.288Z,22.27
2019-02-17T11:15:17.504Z,21.33
2019-02-17T11:17:48.026Z,20.27
2019-02-17T11:20:18.292Z,24.40
2019-02-17T11:22:48.601Z,21.80
2019-02-17T11:25:18.912Z,22.30
2019-02-17T11:27:49.313Z,20.17
2019-02-17T11:30:19.709Z,20.10
2019-02-17T11:32:57.600Z,19.37
2019-02-17T11:35:20.445Z,20.30
2019-02-17T11:37:50.781Z,20.53
2019-02-17T11:40:21.093Z,19.13
2019-02-17T11:42:51.533Z,19.43
2019-02-17T11:45:22.381Z,17.77
2019-02-17T11:47:52.697Z,20.50
2019-02-17T11:50:22.819Z,20.80
2019-02-17T11:52:53.193Z,18.90
2019-02-17T11:55:23.638Z,21.07
2019-02-17T11:57:54.296Z,21.13
2019-02-17T12:00:24.626Z,22.20
2019-02-17T12:02:54.873Z,19.30
2019-02-17T12:05:25.121Z,17.97
2019-02-17T12:07:55.462Z,19.23
2019-02-17T12:10:25.722Z,20.03
2019-02-17T12:12:56.033Z,19.40
2019-02-17T12:15:26.272Z,18.00
2019-02-17T12:17:56.553Z,17.77
2019-02-17T12:21:29.676Z,25.33
2019-02-17T12:24:04.826Z,18.60
2019-02-17T12:26:42.102Z,17.90
2019-02-17T12:29:17.441Z,18.93
2019-02-17T12:31:47.794Z,19.07
2019-02-17T12:34:18.281Z,19.37
2019-02-17T12:36:48.565Z,19.10
2019-02-17T12:39:18.891Z,20.37
2019-02-17T12:41:49.211Z,17.93
2019-02-17T12:44:19.558Z,23.10
2019-02-17T12:46:49.975Z,21.13
2019-02-17T12:49:20.630Z,20.47
2019-02-17T12:51:50.881Z,20.87
2019-02-17T12:54:28.899Z,19.47
2019-02-17T12:56:51.068Z,19.90
2019-02-17T12:59:21.298Z,21.33
2019-02-17T13:01:51.606Z,21.27
2019-02-17T13:04:22.043Z,20.90
2019-02-17T13:06:51.778Z,21.60
2019-02-17T13:09:22.098Z,20.50
2019-02-17T13:11:52.345Z,22.40
2019-02-17T13:14:22.656Z,19.47
2019-02-17T13:16:53.086Z,18.57
2019-02-17T13:19:23.261Z,17.47
2019-02-17T13:21:53.612Z,19.77
2019-02-17T13:24:23.902Z,17.53
2019-02-17T13:26:54.082Z,17.97
2019-02-17T13:29:24.320Z,18.17
2019-02-17T13:31:54.562Z,20.87
2019-02-17T13:34:24.942Z,19.73
2019-02-17T13:36:55.226Z,19.57
2019-02-17T13:39:25.557Z,20.50
2019-02-17T13:41:56.131Z,19.60
2019-02-17T13:44:26.483Z,20.20
2019-02-17T13:46:56.742Z,22.50
2019-02-17T13:49:27.066Z,21.47
2019-02-17T13:51:57.394Z,19.80
2019-02-17T13:54:27.842Z,20.27
2019-02-17T13:56:58.111Z,21.13
2019-02-17T13:59:28.444Z,21.60
2019-02-17T14:01:58.056Z,19.57
2019-02-17T14:04:28.429Z,18.53
2019-02-17T14:06:58.701Z,18.67
2019-02-17T14:15:16.643Z,19.97
2019-02-17T14:17:47.009Z,17.73
2019-02-17T14:20:17.566Z,20.60
2019-02-17T14:22:47.988Z,21.50
2019-02-17T14:25:18.348Z,19.50
2019-02-17T14:27:48.687Z,17.87
2019-02-17T14:30:19.354Z,19.17
2019-02-17T14:32:49.659Z,19.73
2019-02-17T14:35:19.943Z,22.20
2019-02-17T14:37:50.266Z,18.40
2019-02-17T14:40:20.640Z,17.70
2019-02-17T14:42:50.884Z,20.37
2019-02-17T14:45:21.158Z,19.00
2019-02-17T14:47:51.495Z,17.33
2019-02-17T14:50:21.856Z,21.53
2019-02-17T14:52:52.135Z,19.53
2019-02-17T14:55:22.524Z,20.30
2019-02-17T14:57:52.682Z,20.50
2019-02-17T15:00:22.931Z,17.73
2019-02-17T15:02:53.231Z,19.53
2019-02-17T15:05:23.549Z,19.40
2019-02-17T15:07:53.880Z,20.83
2019-02-17T15:10:24.229Z,17.43
2019-02-17T15:12:54.054Z,19.47
2019-02-17T15:15:24.424Z,16.53
2019-02-17T15:17:54.538Z,20.63
2019-02-17T15:20:24.967Z,17.93
2019-02-17T15:22:55.335Z,19.37
2019-02-17T15:25:25.628Z,17.80
2019-02-17T15:27:55.951Z,18.30
2019-02-17T15:30:26.231Z,16.53
2019-02-17T15:33:03.507Z,14.90
2019-02-17T15:35:26.806Z,18.63
2019-02-17T15:37:57.144Z,20.47
2019-02-17T15:40:27.579Z,21.20
2019-02-17T15:42:57.298Z,15.37
2019-02-17T15:45:28.527Z,21.43
2019-02-17T15:47:59.082Z,21.13
2019-02-17T15:50:29.630Z,20.30
2019-02-17T15:52:59.891Z,15.97
2019-02-17T15:55:30.315Z,19.97
2019-02-17T15:58:00.619Z,18.00
2019-02-17T16:00:30.915Z,21.20
2019-02-17T16:03:01.180Z,17.67
2019-02-17T16:05:31.637Z,23.40
2019-02-17T16:08:08.656Z,20.30
2019-02-17T16:10:39.027Z,29.23
2019-02-17T16:13:09.330Z,35.03
2019-02-17T16:15:39.595Z,27.57
2019-02-17T16:18:09.979Z,247.33
2019-02-17T16:20:40.292Z,239.17
2019-02-17T16:23:10.636Z,109.50
2019-02-17T16:25:41.013Z,185.63
2019-02-17T16:28:11.615Z,50.20
2019-02-17T16:30:41.995Z,47.37
2019-02-17T16:33:12.469Z,120.73
2019-02-17T16:35:42.777Z,131.63
2019-02-17T16:38:13.075Z,64.13
2019-02-17T16:40:43.380Z,27.73
2019-02-17T16:43:13.722Z,22.37
2019-02-17T16:45:44.244Z,21.63
2019-02-17T16:48:14.480Z,21.57
2019-02-17T16:50:44.564Z,21.83
2019-02-17T16:53:14.515Z,134.57
2019-02-17T16:55:44.963Z,67.87
2019-02-17T16:58:15.396Z,25.80
2019-02-17T17:00:45.892Z,55.30
2019-02-17T17:03:16.189Z,86.43
2019-02-17T17:05:46.608Z,26.83
2019-02-17T17:08:17.175Z,26.60
2019-02-17T17:10:47.531Z,30.53
2019-02-17T17:13:17.924Z,28.90
2019-02-17T17:15:48.033Z,68.03
2019-02-17T17:18:18.338Z,52.93
2019-02-17T17:20:48.652Z,38.07
2019-02-17T17:23:18.917Z,36.63
2019-02-17T17:25:49.418Z,50.27
2019-02-17T17:28:19.994Z,42.17
2019-02-17T17:30:50.315Z,103.30
2019-02-17T17:33:20.623Z,73.17
2019-02-17T17:35:50.871Z,63.13
2019-02-17T17:38:21.182Z,48.80
2019-02-17T17:40:51.648Z,43.27
2019-02-17T17:43:21.613Z,49.67
2019-02-17T17:45:51.681Z,49.73
2019-02-17T17:48:21.713Z,37.90
2019-02-17T17:50:51.951Z,172.03
2019-02-17T17:53:22.265Z,75.23
2019-02-17T17:55:52.643Z,208.90
2019-02-17T17:58:22.973Z,233.13
2019-02-17T18:00:53.399Z,259.70
2019-02-17T18:03:23.691Z,278.07
2019-02-17T18:05:54.047Z,142.27
2019-02-17T18:08:24.411Z,98.87
2019-02-17T18:10:54.864Z,78.77
2019-02-17T18:13:25.164Z,147.57
2019-02-17T18:15:55.439Z,272.60
2019-02-17T18:18:25.916Z,57.70
2019-02-17T18:20:56.241Z,44.90
2019-02-17T18:23:26.604Z,47.67
2019-02-17T18:25:57.118Z,109.67
2019-02-17T18:28:27.471Z,80.10
2019-02-17T18:30:57.844Z,83.40
2019-02-17T18:33:28.343Z,66.97
2019-02-17T18:36:00.817Z,120.23
2019-02-17T18:38:35.211Z,96.07
2019-02-17T18:41:05.720Z,198.57
2019-02-17T18:43:36.063Z,502.73
2019-02-17T18:46:06.651Z,425.70
2019-02-17T18:48:37.177Z,291.53
2019-02-17T18:51:07.935Z,171.30
2019-02-17T18:53:38.338Z,126.30
2019-02-17T18:56:09.859Z,63.37
2019-02-17T18:58:41.433Z,140.87
2019-02-17T19:01:12.036Z,95.47
2019-02-17T19:03:42.854Z,187.40
2019-02-17T19:06:13.646Z,81.80
2019-02-17T19:08:45.236Z,49.40
2019-02-17T19:11:15.732Z,84.60
2019-02-17T19:13:47.243Z,80.07
2019-02-17T19:16:19.460Z,74.77
2019-02-17T19:18:50.600Z,54.40
2019-02-17T19:21:21.323Z,77.90
2019-02-17T19:23:51.711Z,79.33
2019-02-17T19:26:23.699Z,69.97
2019-02-17T19:28:54.651Z,108.73
2019-02-17T19:31:25.931Z,113.13
2019-02-17T19:33:57.009Z,97.13
2019-02-17T19:36:27.637Z,76.70
2019-02-17T19:38:58.440Z,130.33
2019-02-17T19:41:29.843Z,191.67
2019-02-17T19:44:00.470Z,107.27
2019-02-17T19:46:31.613Z,84.50
2019-02-17T19:49:03.350Z,74.87
2019-02-17T19:51:34.419Z,66.00
2019-02-17T19:54:05.479Z,92.80
2019-02-17T19:56:36.523Z,219.97
2019-02-17T19:59:07.293Z,363.40
2019-02-17T20:01:38.108Z,330.00
2019-02-17T20:04:15.776Z,105.40
2019-02-17T20:06:46.970Z,83.67
2019-02-17T20:09:19.514Z,68.80
2019-02-17T20:11:52.160Z,78.80
2019-02-17T20:14:20.537Z,243.70
2019-02-17T20:16:50.958Z,74.93
2019-02-17T20:19:21.353Z,82.73
2019-02-17T20:21:51.914Z,58.57
2019-02-17T20:24:22.537Z,87.57
2019-02-17T20:26:53.327Z,63.23
2019-02-17T20:29:23.563Z,67.93
2019-02-17T20:31:54.021Z,122.07
2019-02-17T20:34:24.528Z,172.17
2019-02-17T20:36:55.052Z,75.37
2019-02-17T20:39:25.363Z,61.90
2019-02-17T20:41:55.703Z,64.03
2019-02-17T20:44:25.983Z,88.77
2019-02-17T20:46:56.486Z,113.53
2019-02-17T20:49:26.783Z,61.03
2019-02-17T20:51:57.291Z,75.57
2019-02-17T20:54:27.866Z,242.17
2019-02-17T20:56:58.314Z,619.00
2019-02-17T20:59:28.741Z,708.37
2019-02-17T21:01:59.133Z,196.43
2019-02-17T21:04:29.469Z,105.00
2019-02-17T21:06:59.162Z,142.80
2019-02-17T21:09:29.471Z,125.73
2019-02-17T21:11:59.895Z,71.10
2019-02-17T21:14:30.152Z,49.73
2019-02-17T21:17:00.617Z,68.80
2019-02-17T21:19:31.118Z,61.27
2019-02-17T21:22:01.454Z,57.97
2019-02-17T21:24:31.855Z,58.63
2019-02-17T21:27:02.130Z,82.37
2019-02-17T21:29:32.603Z,77.87
2019-02-17T21:32:03.149Z,69.57
2019-02-17T21:34:33.575Z,66.23
2019-02-17T21:37:03.908Z,71.37
2019-02-17T21:39:34.518Z,62.83
2019-02-17T21:42:04.159Z,61.70
2019-02-17T21:44:34.355Z,63.63
2019-02-17T21:47:04.693Z,60.87
2019-02-17T21:49:34.833Z,85.77
2019-02-17T21:52:05.287Z,73.87
2019-02-17T21:54:35.506Z,59.97
2019-02-17T21:57:05.867Z,60.30
2019-02-17T21:59:35.936Z,131.23
2019-02-17T22:02:06.076Z,64.90
2019-02-17T22:04:36.153Z,59.10
2019-02-17T22:07:06.262Z,61.63
2019-02-17T22:09:36.289Z,45.97
2019-02-17T22:12:06.445Z,39.50
2019-02-17T22:14:36.579Z,46.83
2019-02-17T22:17:06.785Z,45.83
2019-02-17T22:19:36.892Z,46.87
2019-02-17T22:22:07.029Z,65.00
2019-02-17T22:24:37.145Z,85.17
2019-02-17T22:27:07.516Z,63.13
2019-02-17T22:29:37.752Z,52.60
2019-02-17T22:32:07.910Z,49.77
2019-02-17T22:34:38.352Z,56.37
2019-02-17T22:37:08.747Z,98.37
2019-02-17T22:39:39.039Z,100.10
2019-02-17T22:42:09.574Z,124.70
2019-02-17T22:44:39.895Z,117.53
2019-02-17T22:47:10.378Z,106.67
2019-02-17T22:49:40.822Z,139.90
2019-02-17T22:52:11.067Z,153.30
2019-02-17T22:54:41.459Z,196.63
2019-02-17T22:57:11.828Z,184.03
2019-02-17T22:59:42.298Z,204.20
2019-02-17T23:02:12.838Z,166.83
2019-02-17T23:04:43.434Z,186.73
2019-02-17T23:07:13.698Z,153.73
2019-02-17T23:09:44.055Z,131.70
2019-02-17T23:12:15.030Z,121.90
2019-02-17T23:14:45.495Z,111.30
2019-02-17T23:17:15.190Z,100.37
2019-02-17T23:19:45.499Z,105.30
2019-02-17T23:22:16.092Z,103.63
2019-02-17T23:24:46.858Z,92.83
2019-02-17T23:27:17.374Z,95.83
2019-02-17T23:29:47.677Z,88.03
2019-02-17T23:32:18.172Z,104.07
2019-02-17T23:34:48.291Z,109.53
2019-02-17T23:37:18.415Z,118.07
2019-02-17T23:39:48.518Z,126.33
2019-02-17T23:42:18.608Z,111.60
2019-02-17T23:44:48.688Z,135.90
2019-02-17T23:47:18.832Z,125.13
2019-02-17T23:49:48.940Z,116.60
2019-02-17T23:52:19.503Z,113.60
2019-02-17T23:54:49.592Z,117.43
2019-02-17T23:57:19.706Z,129.33
2019-02-17T23:59:49.837Z,115.27
